createdAt,value
2022-08-02T00:00:08.000Z,79.38
2022-08-02T00:01:08.000Z,79.68
2022-08-02T00:02:08.000Z,79.58
2022-08-02T00:03:08.000Z,79.99
2022-08-02T00:04:08.000Z,79.88
2022-08-02T00:05:08.000Z,80.29
2022-08-02T00:06:08.000Z,80.08
2022-08-02T00:07:08.000Z,80.19
2022-08-02T00:08:08.000Z,80.29
2022-08-02T00:09:08.000Z,80.22
2022-08-02T00:10:08.000Z,80.43
2022-08-02T00:11:08.000Z,80.22
2022-08-02T00:12:08.000Z,80.22
2022-08-02T00:13:08.000Z,80.22
2022-08-02T00:14:08.000Z,80.32
2022-08-02T00:15:08.000Z,80.52
2022-08-02T00:16:08.000Z,80.73
2022-08-02T00:17:08.000Z,80.52
2022-08-02T00:18:08.000Z,80.73
2022-08-02T00:19:08.000Z,80.63
2022-08-02T00:19:08.000Z,80.63
2022-08-02T00:20:08.000Z,80.43
2022-08-02T00:20:08.000Z,80.43
2022-08-02T00:21:08.000Z,80.63
2022-08-02T00:21:08.000Z,80.63
2022-08-02T00:22:08.000Z,80.63
2022-08-02T00:22:08.000Z,80.63
2022-08-02T00:23:08.000Z,80.63
2022-08-02T00:23:08.000Z,80.63
2022-08-02T00:24:08.000Z,80.73
2022-08-02T00:25:08.000Z,80.83
2022-08-02T00:26:08.000Z,80.83
2022-08-02T00:27:08.000Z,80.52
2022-08-02T00:28:08.000Z,81.13
2022-08-02T00:29:08.000Z,80.93
2022-08-02T00:29:08.000Z,80.93
2022-08-02T00:29:08.000Z,80.93
2022-08-02T00:30:08.000Z,80.83
2022-08-02T00:30:08.000Z,80.83
2022-08-02T00:30:08.000Z,80.83
2022-08-02T00:31:08.000Z,80.63
2022-08-02T00:31:08.000Z,80.63
2022-08-02T00:31:08.000Z,80.63
2022-08-02T00:32:08.000Z,80.63
2022-08-02T00:32:08.000Z,80.63
2022-08-02T00:32:08.000Z,80.63
2022-08-02T00:33:08.000Z,80.93
2022-08-02T00:33:08.000Z,80.93
2022-08-02T00:33:08.000Z,80.93
2022-08-02T00:34:08.000Z,81.73
2022-08-02T00:34:08.000Z,81.73
2022-08-02T00:35:08.000Z,81.13
2022-08-02T00:35:08.000Z,81.13
2022-08-02T00:36:08.000Z,80.87
2022-08-02T00:36:08.000Z,80.87
2022-08-02T00:37:08.000Z,81.13
2022-08-02T00:37:08.000Z,81.13
2022-08-02T00:38:08.000Z,81.07
2022-08-02T00:38:08.000Z,81.07
2022-08-02T00:39:08.000Z,81.17
2022-08-02T00:40:08.000Z,81.27
2022-08-02T00:41:08.000Z,80.87
2022-08-02T00:42:08.000Z,80.77
2022-08-02T00:43:08.000Z,80.87
2022-08-02T00:44:08.000Z,80.97
2022-08-02T00:45:08.000Z,80.87
2022-08-02T00:46:08.000Z,80.77
2022-08-02T00:47:08.000Z,80.57
2022-08-02T00:48:08.000Z,80.87
2022-08-02T00:49:08.000Z,80.80
2022-08-02T00:50:08.000Z,80.80
2022-08-02T00:51:08.000Z,81.01
2022-08-02T00:52:08.000Z,81.01
2022-08-02T00:53:08.000Z,80.80
2022-08-02T00:54:08.000Z,80.90
2022-08-02T00:55:08.000Z,81.01
2022-08-02T00:56:08.000Z,80.90
2022-08-02T00:57:08.000Z,81.01
2022-08-02T00:58:08.000Z,81.41
2022-08-02T00:59:08.000Z,81.45
2022-08-02T00:59:08.000Z,81.45
2022-08-02T01:00:08.000Z,81.41
2022-08-02T01:00:08.000Z,81.41
2022-08-02T01:01:08.000Z,81.75
2022-08-02T01:01:08.000Z,81.75
2022-08-02T01:02:07.000Z,81.55
2022-08-02T01:02:07.000Z,81.55
2022-08-02T01:03:07.000Z,81.85
2022-08-02T01:03:07.000Z,81.85
2022-08-02T01:04:07.000Z,81.85
2022-08-02T01:05:07.000Z,81.85
2022-08-02T01:06:07.000Z,81.95
2022-08-02T01:07:07.000Z,82.05
2022-08-02T01:08:07.000Z,82.05
2022-08-02T01:09:07.000Z,81.95
2022-08-02T01:10:07.000Z,81.95
2022-08-02T01:11:07.000Z,82.35
2022-08-02T01:12:07.000Z,82.29
2022-08-02T01:13:07.000Z,82.19
2022-08-02T01:14:07.000Z,82.29
2022-08-02T01:15:07.000Z,82.70
2022-08-02T01:16:07.000Z,82.50
2022-08-02T01:17:07.000Z,82.29
2022-08-02T01:18:07.000Z,82.70
2022-08-02T01:19:07.000Z,82.79
2022-08-02T01:20:07.000Z,82.79
2022-08-02T01:21:07.000Z,82.70
2022-08-02T01:22:07.000Z,82.93
2022-08-02T01:23:07.000Z,83.24
2022-08-02T01:24:07.000Z,83.54
2022-08-02T01:25:07.000Z,83.24
2022-08-02T01:26:07.000Z,83.24
2022-08-02T01:27:07.000Z,83.24
2022-08-02T01:28:07.000Z,83.14
2022-08-02T01:29:07.000Z,83.14
2022-08-02T01:30:07.000Z,83.18
2022-08-02T01:31:07.000Z,83.18
2022-08-02T01:32:07.000Z,83.18
2022-08-02T01:33:07.000Z,83.48
2022-08-02T01:34:07.000Z,83.68
2022-08-02T01:34:07.000Z,83.68
2022-08-02T01:34:07.000Z,83.68
2022-08-02T01:35:07.000Z,83.78
2022-08-02T01:35:07.000Z,83.78
2022-08-02T01:35:07.000Z,83.78
2022-08-02T01:36:07.000Z,83.78
2022-08-02T01:36:07.000Z,83.78
2022-08-02T01:36:07.000Z,83.78
2022-08-02T01:37:07.000Z,83.78
2022-08-02T01:37:07.000Z,83.78
2022-08-02T01:37:07.000Z,83.78
2022-08-02T01:38:07.000Z,83.68
2022-08-02T01:38:07.000Z,83.68
2022-08-02T01:38:07.000Z,83.68
2022-08-02T01:39:07.000Z,83.78
2022-08-02T01:39:07.000Z,83.78
2022-08-02T01:40:07.000Z,83.62
2022-08-02T01:40:07.000Z,83.62
2022-08-02T01:41:07.000Z,83.62
2022-08-02T01:41:07.000Z,83.62
2022-08-02T01:42:07.000Z,83.82
2022-08-02T01:42:07.000Z,83.82
2022-08-02T01:43:07.000Z,84.23
2022-08-02T01:43:07.000Z,84.23
2022-08-02T01:44:07.000Z,84.03
2022-08-02T01:45:07.000Z,84.53
2022-08-02T01:46:07.000Z,84.83
2022-08-02T01:47:07.000Z,84.83
2022-08-02T01:48:07.000Z,84.63
2022-08-02T01:49:07.000Z,84.43
2022-08-02T01:50:07.000Z,84.47
2022-08-02T01:51:07.000Z,84.33
2022-08-02T01:52:07.000Z,84.27
2022-08-02T01:53:07.000Z,84.06
2022-08-02T01:54:07.000Z,84.77
2022-08-02T01:55:07.000Z,84.37
2022-08-02T01:56:07.000Z,83.86
2022-08-02T01:57:07.000Z,83.86
2022-08-02T01:58:07.000Z,83.66
2022-08-02T01:59:07.000Z,83.66
2022-08-02T02:00:07.000Z,83.66
2022-08-02T02:01:07.000Z,83.86
2022-08-02T02:02:07.000Z,83.56
2022-08-02T02:03:07.000Z,83.15
2022-08-02T02:04:07.000Z,83.56
2022-08-02T02:05:07.000Z,83.86
2022-08-02T02:06:07.000Z,83.76
2022-08-02T02:07:07.000Z,83.56
2022-08-02T02:08:07.000Z,83.36
2022-08-02T02:09:07.000Z,83.26
2022-08-02T02:10:07.000Z,83.26
2022-08-02T02:11:07.000Z,83.76
2022-08-02T02:12:07.000Z,83.36
2022-08-02T02:13:07.000Z,82.95
2022-08-02T02:14:06.000Z,82.85
2022-08-02T02:14:06.000Z,82.85
2022-08-02T02:15:06.000Z,82.75
2022-08-02T02:15:06.000Z,82.75
2022-08-02T02:16:06.000Z,82.55
2022-08-02T02:16:06.000Z,82.55
2022-08-02T02:17:06.000Z,82.24
2022-08-02T02:17:06.000Z,82.24
2022-08-02T02:18:06.000Z,82.45
2022-08-02T02:18:06.000Z,82.45
2022-08-02T02:19:06.000Z,82.45
2022-08-02T02:20:06.000Z,82.55
2022-08-02T02:21:06.000Z,82.45
2022-08-02T02:22:06.000Z,82.24
2022-08-02T02:23:06.000Z,81.94
2022-08-02T02:24:06.000Z,82.18
2022-08-02T02:25:06.000Z,82.08
2022-08-02T02:26:06.000Z,81.98
2022-08-02T02:27:06.000Z,81.98
2022-08-02T02:28:06.000Z,82.28
2022-08-02T02:29:06.000Z,82.18
2022-08-02T02:30:06.000Z,82.08
2022-08-02T02:31:06.000Z,82.49
2022-08-02T02:32:06.000Z,82.28
2022-08-02T02:33:06.000Z,82.49
2022-08-02T02:34:06.000Z,82.59
2022-08-02T02:35:06.000Z,82.69
2022-08-02T02:36:06.000Z,82.49
2022-08-02T02:37:06.000Z,82.39
2022-08-02T02:38:06.000Z,82.62
2022-08-02T02:39:06.000Z,82.53
2022-08-02T02:40:06.000Z,82.73
2022-08-02T02:41:06.000Z,83.13
2022-08-02T02:42:06.000Z,83.03
2022-08-02T02:43:06.000Z,83.13
2022-08-02T02:44:06.000Z,83.03
2022-08-02T02:45:06.000Z,83.03
2022-08-02T02:46:06.000Z,83.03
2022-08-02T02:47:06.000Z,83.33
2022-08-02T02:48:06.000Z,83.23
2022-08-02T02:49:06.000Z,83.33
2022-08-02T02:49:06.000Z,83.33
2022-08-02T02:50:06.000Z,83.13
2022-08-02T02:50:06.000Z,83.13
2022-08-02T02:51:06.000Z,83.74
2022-08-02T02:51:06.000Z,83.74
2022-08-02T02:52:06.000Z,83.44
2022-08-02T02:52:06.000Z,83.44
2022-08-02T02:53:06.000Z,83.44
2022-08-02T02:53:06.000Z,83.44
2022-08-02T02:54:06.000Z,83.64
2022-08-02T02:55:06.000Z,83.64
2022-08-02T02:56:06.000Z,83.74
2022-08-02T02:57:06.000Z,83.54
2022-08-02T02:58:06.000Z,83.44
2022-08-02T02:59:06.000Z,84.34
2022-08-02T03:00:06.000Z,84.14
2022-08-02T03:01:06.000Z,84.14
2022-08-02T03:02:06.000Z,84.14
2022-08-02T03:03:06.000Z,84.04
2022-08-02T03:04:06.000Z,84.14
2022-08-02T03:05:06.000Z,84.14
2022-08-02T03:06:06.000Z,84.04
2022-08-02T03:07:06.000Z,84.25
2022-08-02T03:08:06.000Z,84.14
2022-08-02T03:09:06.000Z,84.34
2022-08-02T03:10:06.000Z,84.25
2022-08-02T03:11:06.000Z,84.45
2022-08-02T03:12:06.000Z,84.55
2022-08-02T03:13:06.000Z,84.34
2022-08-02T03:14:06.000Z,84.25
2022-08-02T03:15:06.000Z,84.55
2022-08-02T03:16:06.000Z,84.45
2022-08-02T03:17:06.000Z,84.65
2022-08-02T03:18:06.000Z,84.41
2022-08-02T03:19:06.000Z,84.20
2022-08-02T03:19:06.000Z,84.20
2022-08-02T03:20:06.000Z,84.51
2022-08-02T03:20:06.000Z,84.51
2022-08-02T03:21:06.000Z,84.11
2022-08-02T03:21:06.000Z,84.11
2022-08-02T03:22:06.000Z,84.41
2022-08-02T03:22:06.000Z,84.41
2022-08-02T03:23:06.000Z,84.31
2022-08-02T03:23:06.000Z,84.31
2022-08-02T03:24:06.000Z,84.61
2022-08-02T03:25:06.000Z,84.31
2022-08-02T03:26:05.000Z,84.31
2022-08-02T03:27:05.000Z,84.31
2022-08-02T03:28:05.000Z,84.00
2022-08-02T03:29:05.000Z,83.90
2022-08-02T03:30:05.000Z,83.80
2022-08-02T03:31:05.000Z,83.80
2022-08-02T03:32:05.000Z,83.80
2022-08-02T03:33:05.000Z,83.60
2022-08-02T03:34:05.000Z,83.60
2022-08-02T03:35:05.000Z,83.50
2022-08-02T03:36:05.000Z,83.50
2022-08-02T03:37:05.000Z,83.40
2022-08-02T03:38:05.000Z,83.40
2022-08-02T03:39:05.000Z,83.50
2022-08-02T03:40:05.000Z,83.19
2022-08-02T03:41:05.000Z,82.89
2022-08-02T03:42:05.000Z,82.99
2022-08-02T03:43:05.000Z,82.79
2022-08-02T03:44:05.000Z,82.69
2022-08-02T03:45:05.000Z,82.69
2022-08-02T03:46:05.000Z,82.59
2022-08-02T03:47:05.000Z,82.59
2022-08-02T03:48:05.000Z,82.49
2022-08-02T03:49:05.000Z,82.69
2022-08-02T03:50:05.000Z,82.18
2022-08-02T03:51:05.000Z,82.08
2022-08-02T03:52:05.000Z,82.39
2022-08-02T03:53:05.000Z,82.28
2022-08-02T03:54:05.000Z,82.18
2022-08-02T03:55:05.000Z,82.18
2022-08-02T03:56:05.000Z,82.49
2022-08-02T03:57:05.000Z,81.88
2022-08-02T03:58:05.000Z,81.68
2022-08-02T03:59:05.000Z,81.57
2022-08-02T04:00:05.000Z,81.37
2022-08-02T04:01:05.000Z,81.27
2022-08-02T04:02:05.000Z,81.07
2022-08-02T04:03:05.000Z,81.27
2022-08-02T04:04:05.000Z,81.17
2022-08-02T04:05:05.000Z,81.17
2022-08-02T04:06:05.000Z,81.07
2022-08-02T04:07:05.000Z,80.97
2022-08-02T04:08:05.000Z,80.97
2022-08-02T04:09:05.000Z,81.37
2022-08-02T04:10:05.000Z,80.87
2022-08-02T04:11:05.000Z,80.57
2022-08-02T04:12:05.000Z,80.57
2022-08-02T04:13:05.000Z,80.77
2022-08-02T04:14:05.000Z,81.37
2022-08-02T04:15:05.000Z,81.37
2022-08-02T04:16:05.000Z,81.48
2022-08-02T04:17:05.000Z,81.37
2022-08-02T04:18:05.000Z,81.17
2022-08-02T04:19:05.000Z,81.48
2022-08-02T04:19:05.000Z,81.48
2022-08-02T04:20:05.000Z,81.48
2022-08-02T04:20:05.000Z,81.48
2022-08-02T04:21:05.000Z,81.88
2022-08-02T04:21:05.000Z,81.88
2022-08-02T04:22:05.000Z,81.88
2022-08-02T04:22:05.000Z,81.88
2022-08-02T04:23:05.000Z,81.78
2022-08-02T04:23:05.000Z,81.78
2022-08-02T04:24:05.000Z,81.68
2022-08-02T04:25:05.000Z,81.78
2022-08-02T04:26:05.000Z,82.08
2022-08-02T04:27:05.000Z,82.08
2022-08-02T04:28:05.000Z,81.68
2022-08-02T04:29:05.000Z,81.78
2022-08-02T04:30:05.000Z,81.17
2022-08-02T04:31:05.000Z,81.48
2022-08-02T04:32:05.000Z,81.48
2022-08-02T04:33:05.000Z,81.07
2022-08-02T04:34:05.000Z,81.17
2022-08-02T04:35:05.000Z,81.37
2022-08-02T04:36:05.000Z,81.48
2022-08-02T04:37:05.000Z,81.37
2022-08-02T04:38:04.000Z,81.78
2022-08-02T04:39:04.000Z,81.78
2022-08-02T04:40:04.000Z,81.48
2022-08-02T04:41:04.000Z,81.57
2022-08-02T04:42:04.000Z,81.68
2022-08-02T04:43:04.000Z,81.37
2022-08-02T04:44:04.000Z,82.24
2022-08-02T04:45:04.000Z,81.94
2022-08-02T04:46:04.000Z,81.84
2022-08-02T04:47:04.000Z,81.64
2022-08-02T04:48:04.000Z,81.54
2022-08-02T04:49:04.000Z,81.64
2022-08-02T04:50:04.000Z,81.74
2022-08-02T04:51:04.000Z,81.94
2022-08-02T04:52:04.000Z,81.94
2022-08-02T04:53:04.000Z,81.74
2022-08-02T04:54:04.000Z,82.04
2022-08-02T04:55:04.000Z,81.84
2022-08-02T04:56:04.000Z,81.74
2022-08-02T04:57:04.000Z,81.74
2022-08-02T04:58:04.000Z,81.94
2022-08-02T04:59:04.000Z,82.35
2022-08-02T05:00:04.000Z,82.35
2022-08-02T05:01:04.000Z,82.04
2022-08-02T05:02:04.000Z,82.55
2022-08-02T05:03:04.000Z,82.65
2022-08-02T05:04:04.000Z,82.55
2022-08-02T05:05:04.000Z,82.35
2022-08-02T05:06:04.000Z,82.35
2022-08-02T05:07:04.000Z,82.65
2022-08-02T05:08:04.000Z,82.31
2022-08-02T05:09:04.000Z,82.61
2022-08-02T05:10:04.000Z,82.51
2022-08-02T05:11:04.000Z,82.71
2022-08-02T05:12:04.000Z,82.41
2022-08-02T05:13:04.000Z,82.31
2022-08-02T05:14:04.000Z,82.47
2022-08-02T05:15:04.000Z,82.57
2022-08-02T05:16:04.000Z,81.67
2022-08-02T05:17:04.000Z,81.05
2022-08-02T05:18:04.000Z,80.96
2022-08-02T05:19:04.000Z,81.26
2022-08-02T05:20:04.000Z,81.22
2022-08-02T05:21:04.000Z,80.72
2022-08-02T05:22:04.000Z,80.01
2022-08-02T05:23:04.000Z,80.62
2022-08-02T05:24:04.000Z,81.12
2022-08-02T05:25:04.000Z,80.51
2022-08-02T05:26:04.000Z,79.97
2022-08-02T05:27:04.000Z,79.61
2022-08-02T05:28:04.000Z,80.07
2022-08-02T05:29:04.000Z,80.27
2022-08-02T05:30:04.000Z,79.87
2022-08-02T05:31:04.000Z,79.97
2022-08-02T05:32:04.000Z,79.77
2022-08-02T05:33:04.000Z,79.57
2022-08-02T05:34:04.000Z,79.67
2022-08-02T05:34:04.000Z,79.67
2022-08-02T05:35:04.000Z,78.56
2022-08-02T05:35:04.000Z,78.56
2022-08-02T05:36:04.000Z,79.16
2022-08-02T05:36:04.000Z,79.16
2022-08-02T05:37:04.000Z,79.06
2022-08-02T05:37:04.000Z,79.06
2022-08-02T05:38:04.000Z,80.04
2022-08-02T05:38:04.000Z,80.04
2022-08-02T05:39:04.000Z,79.33
2022-08-02T05:40:04.000Z,79.13
2022-08-02T05:41:04.000Z,80.24
2022-08-02T05:42:04.000Z,79.73
2022-08-02T05:43:04.000Z,78.99
2022-08-02T05:44:04.000Z,79.09
2022-08-02T05:45:04.000Z,78.08
2022-08-02T05:46:04.000Z,78.39
2022-08-02T05:47:04.000Z,78.28
2022-08-02T05:48:04.000Z,77.08
2022-08-02T05:49:04.000Z,77.04
2022-08-02T05:50:03.000Z,77.64
2022-08-02T05:51:03.000Z,77.55
2022-08-02T05:52:03.000Z,77.75
2022-08-02T05:53:03.000Z,77.64
2022-08-02T05:54:03.000Z,78.15
2022-08-02T05:55:03.000Z,77.24
2022-08-02T05:56:03.000Z,76.84
2022-08-02T05:57:03.000Z,76.64
2022-08-02T05:58:03.000Z,77.34
2022-08-02T05:59:03.000Z,76.03
2022-08-02T06:00:03.000Z,76.34
2022-08-02T06:01:03.000Z,76.54
2022-08-02T06:02:03.000Z,76.43
2022-08-02T06:03:03.000Z,75.53
2022-08-02T06:04:03.000Z,75.13
2022-08-02T06:05:03.000Z,75.49
2022-08-02T06:06:03.000Z,74.29
2022-08-02T06:07:03.000Z,75.19
2022-08-02T06:08:03.000Z,75.19
2022-08-02T06:09:03.000Z,74.18
2022-08-02T06:10:03.000Z,72.17
2022-08-02T06:11:03.000Z,72.57
2022-08-02T06:12:03.000Z,72.17
2022-08-02T06:13:03.000Z,72.67
2022-08-02T06:14:03.000Z,71.47
2022-08-02T06:15:03.000Z,71.47
2022-08-02T06:16:03.000Z,72.57
2022-08-02T06:17:03.000Z,72.57
2022-08-02T06:18:03.000Z,72.77
2022-08-02T06:19:03.000Z,72.07
2022-08-02T06:20:03.000Z,73.08
2022-08-02T06:21:03.000Z,72.37
2022-08-02T06:22:03.000Z,72.37
2022-08-02T06:23:03.000Z,71.83
2022-08-02T06:24:03.000Z,71.53
2022-08-02T06:25:03.000Z,72.44
2022-08-02T06:26:03.000Z,72.54
2022-08-02T06:27:03.000Z,71.43
2022-08-02T06:28:03.000Z,71.73
2022-08-02T06:29:03.000Z,72.34
2022-08-02T06:30:03.000Z,72.54
2022-08-02T06:31:03.000Z,71.80
2022-08-02T06:32:03.000Z,71.50
2022-08-02T06:33:03.000Z,70.89
2022-08-02T06:34:03.000Z,71.60
2022-08-02T06:35:03.000Z,70.70
2022-08-02T06:36:03.000Z,71.80
2022-08-02T06:37:03.000Z,70.89
2022-08-02T06:38:03.000Z,70.19
2022-08-02T06:39:03.000Z,70.66
2022-08-02T06:39:03.000Z,70.66
2022-08-02T06:40:03.000Z,70.76
2022-08-02T06:40:03.000Z,70.76
2022-08-02T06:41:03.000Z,70.46
2022-08-02T06:41:03.000Z,70.46
2022-08-02T06:42:03.000Z,70.96
2022-08-02T06:42:03.000Z,70.96
2022-08-02T06:43:03.000Z,71.36
2022-08-02T06:43:03.000Z,71.36
2022-08-02T06:44:03.000Z,71.43
2022-08-02T06:45:03.000Z,70.32
2022-08-02T06:46:03.000Z,71.13
2022-08-02T06:47:03.000Z,70.53
2022-08-02T06:48:03.000Z,70.53
2022-08-02T06:49:03.000Z,69.62
2022-08-02T06:50:03.000Z,69.62
2022-08-02T06:51:03.000Z,69.32
2022-08-02T06:52:03.000Z,69.12
2022-08-02T06:53:03.000Z,69.22
2022-08-02T06:54:03.000Z,69.92
2022-08-02T06:55:03.000Z,69.62
2022-08-02T06:56:03.000Z,69.92
2022-08-02T06:57:03.000Z,69.52
2022-08-02T06:58:03.000Z,70.70
2022-08-02T06:59:03.000Z,69.89
2022-08-02T07:00:03.000Z,69.89
2022-08-02T07:01:03.000Z,70.19
2022-08-02T07:02:02.000Z,69.39
2022-08-02T07:03:02.000Z,69.29
2022-08-02T07:04:02.000Z,68.88
2022-08-02T07:04:02.000Z,68.88
2022-08-02T07:05:02.000Z,67.98
2022-08-02T07:05:02.000Z,67.98
2022-08-02T07:06:02.000Z,68.29
2022-08-02T07:06:02.000Z,68.29
2022-08-02T07:07:02.000Z,69.09
2022-08-02T07:07:02.000Z,69.09
2022-08-02T07:08:02.000Z,68.88
2022-08-02T07:08:02.000Z,68.88
2022-08-02T07:09:02.000Z,69.49
2022-08-02T07:10:02.000Z,69.26
2022-08-02T07:11:02.000Z,69.35
2022-08-02T07:12:02.000Z,69.66
2022-08-02T07:13:02.000Z,69.26
2022-08-02T07:14:02.000Z,68.76
2022-08-02T07:15:02.000Z,68.12
2022-08-02T07:16:02.000Z,67.82
2022-08-02T07:17:02.000Z,66.99
2022-08-02T07:18:02.000Z,66.78
2022-08-02T07:19:02.000Z,65.95
2022-08-02T07:20:02.000Z,66.25
2022-08-02T07:21:02.000Z,65.65
2022-08-02T07:22:02.000Z,65.15
2022-08-02T07:23:02.000Z,65.62
2022-08-02T07:24:02.000Z,64.92
2022-08-02T07:25:02.000Z,64.81
2022-08-02T07:26:02.000Z,65.82
2022-08-02T07:27:02.000Z,65.82
2022-08-02T07:28:02.000Z,65.39
2022-08-02T07:29:02.000Z,65.28
2022-08-02T07:30:02.000Z,65.78
2022-08-02T07:31:02.000Z,63.89
2022-08-02T07:32:02.000Z,63.89
2022-08-02T07:33:02.000Z,63.89
2022-08-02T07:34:02.000Z,63.78
2022-08-02T07:35:02.000Z,64.89
2022-08-02T07:36:02.000Z,63.98
2022-08-02T07:37:02.000Z,62.98
2022-08-02T07:38:02.000Z,62.98
2022-08-02T07:39:02.000Z,62.95
2022-08-02T07:40:02.000Z,64.22
2022-08-02T07:41:02.000Z,62.02
2022-08-02T07:42:02.000Z,62.76
2022-08-02T07:43:02.000Z,59.91
2022-08-02T07:44:02.000Z,59.18
2022-08-02T07:45:02.000Z,58.36
2022-08-02T07:46:02.000Z,57.43
2022-08-02T07:47:02.000Z,56.90
2022-08-02T07:48:02.000Z,57.67
2022-08-02T07:49:02.000Z,56.51
2022-08-02T07:49:02.000Z,56.51
2022-08-02T07:50:02.000Z,55.78
2022-08-02T07:50:02.000Z,55.78
2022-08-02T07:51:02.000Z,56.25
2022-08-02T07:51:02.000Z,56.25
2022-08-02T07:52:02.000Z,56.82
2022-08-02T07:52:02.000Z,56.82
2022-08-02T07:53:02.000Z,54.80
2022-08-02T07:53:02.000Z,54.80
2022-08-02T07:54:02.000Z,54.18
2022-08-02T07:55:02.000Z,53.58
2022-08-02T07:56:02.000Z,53.69
2022-08-02T07:57:02.000Z,53.36
2022-08-02T07:58:02.000Z,53.04
2022-08-02T07:59:02.000Z,52.02
2022-08-02T08:00:02.000Z,52.12
2022-08-02T08:01:02.000Z,51.00
2022-08-02T08:02:02.000Z,51.82
2022-08-02T08:03:02.000Z,52.02
2022-08-02T08:04:02.000Z,52.09
2022-08-02T08:05:02.000Z,52.29
2022-08-02T08:06:02.000Z,52.39
2022-08-02T08:07:02.000Z,50.88
2022-08-02T08:08:02.000Z,50.78
2022-08-02T08:09:02.000Z,50.85
2022-08-02T08:09:02.000Z,50.85
2022-08-02T08:10:02.000Z,50.26
2022-08-02T08:10:02.000Z,50.26
2022-08-02T08:11:02.000Z,50.65
2022-08-02T08:11:02.000Z,50.65
2022-08-02T08:12:02.000Z,50.06
2022-08-02T08:12:02.000Z,50.06
2022-08-02T08:13:02.000Z,49.86
2022-08-02T08:13:02.000Z,49.86
2022-08-02T08:14:01.000Z,50.43
2022-08-02T08:15:01.000Z,50.04
2022-08-02T08:16:01.000Z,51.23
2022-08-02T08:17:01.000Z,50.83
2022-08-02T08:18:01.000Z,50.71
2022-08-02T08:19:01.000Z,49.52
2022-08-02T08:20:01.000Z,49.27
2022-08-02T08:21:01.000Z,49.27
2022-08-02T08:22:01.000Z,48.06
2022-08-02T08:23:01.000Z,48.03
2022-08-02T08:24:01.000Z,47.42
2022-08-02T08:25:01.000Z,47.64
2022-08-02T08:26:01.000Z,48.46
2022-08-02T08:27:01.000Z,47.96
2022-08-02T08:28:01.000Z,47.54
2022-08-02T08:29:01.000Z,47.13
2022-08-02T08:30:01.000Z,45.82
2022-08-02T08:31:01.000Z,45.92
2022-08-02T08:32:01.000Z,45.64
2022-08-02T08:33:01.000Z,46.88
2022-08-02T08:34:01.000Z,47.09
2022-08-02T08:35:01.000Z,47.69
2022-08-02T08:36:01.000Z,47.49
2022-08-02T08:37:01.000Z,48.16
2022-08-02T08:38:01.000Z,48.46
2022-08-02T08:39:01.000Z,47.47
2022-08-02T08:40:01.000Z,48.48
2022-08-02T08:41:01.000Z,49.27
2022-08-02T08:42:01.000Z,48.46
2022-08-02T08:43:01.000Z,47.74
2022-08-02T08:44:01.000Z,48.03
2022-08-02T08:45:01.000Z,48.33
2022-08-02T08:46:01.000Z,47.62
2022-08-02T08:47:01.000Z,47.10
2022-08-02T08:48:01.000Z,45.70
2022-08-02T08:49:01.000Z,45.87
2022-08-02T08:50:01.000Z,45.65
2022-08-02T08:51:01.000Z,46.25
2022-08-02T08:52:01.000Z,46.25
2022-08-02T08:53:01.000Z,45.78
2022-08-02T08:54:01.000Z,45.57
2022-08-02T08:55:01.000Z,45.46
2022-08-02T08:56:01.000Z,45.65
2022-08-02T08:57:01.000Z,44.67
2022-08-02T08:58:01.000Z,45.46
2022-08-02T08:59:01.000Z,44.27
2022-08-02T09:00:01.000Z,45.04
2022-08-02T09:01:01.000Z,44.15
2022-08-02T09:02:01.000Z,44.35
2022-08-02T09:03:01.000Z,44.27
2022-08-02T09:04:01.000Z,44.18
2022-08-02T09:05:01.000Z,45.75
2022-08-02T09:06:01.000Z,45.06
2022-08-02T09:07:01.000Z,44.76
2022-08-02T09:08:01.000Z,45.78
2022-08-02T09:09:01.000Z,44.76
2022-08-02T09:10:01.000Z,44.37
2022-08-02T09:11:01.000Z,45.56
2022-08-02T09:12:01.000Z,45.06
2022-08-02T09:13:01.000Z,44.27
2022-08-02T09:14:01.000Z,44.87
2022-08-02T09:15:01.000Z,44.74
2022-08-02T09:16:01.000Z,44.72
2022-08-02T09:17:01.000Z,44.65
2022-08-02T09:18:01.000Z,44.45
2022-08-02T09:19:01.000Z,44.62
2022-08-02T09:20:01.000Z,45.41
2022-08-02T09:21:01.000Z,45.21
2022-08-02T09:22:01.000Z,44.82
2022-08-02T09:23:01.000Z,45.24
2022-08-02T09:24:01.000Z,45.38
2022-08-02T09:25:01.000Z,46.39
2022-08-02T09:26:01.000Z,46.22
2022-08-02T09:27:01.000Z,47.08
2022-08-02T09:28:00.000Z,46.19
2022-08-02T09:29:00.000Z,47.97
2022-08-02T09:30:00.000Z,46.56
2022-08-02T09:31:00.000Z,45.67
2022-08-02T09:32:00.000Z,45.48
2022-08-02T09:33:00.000Z,46.64
2022-08-02T09:34:00.000Z,45.06
2022-08-02T09:35:00.000Z,45.85
2022-08-02T09:36:00.000Z,45.63
2022-08-02T09:37:00.000Z,44.25
2022-08-02T09:38:00.000Z,44.94
2022-08-02T09:39:00.000Z,44.74
2022-08-02T09:39:00.000Z,44.74
2022-08-02T09:40:00.000Z,44.53
2022-08-02T09:40:00.000Z,44.53
2022-08-02T09:41:00.000Z,45.12
2022-08-02T09:41:00.000Z,45.12
2022-08-02T09:42:00.000Z,45.93
2022-08-02T09:42:00.000Z,45.93
2022-08-02T09:43:00.000Z,46.84
2022-08-02T09:43:00.000Z,46.84
2022-08-02T09:44:00.000Z,44.65
2022-08-02T09:45:00.000Z,44.55
2022-08-02T09:46:00.000Z,44.35
2022-08-02T09:47:00.000Z,45.26
2022-08-02T09:48:00.000Z,45.24
2022-08-02T09:49:00.000Z,45.12
2022-08-02T09:50:00.000Z,44.33
2022-08-02T09:51:00.000Z,44.33
2022-08-02T09:52:00.000Z,46.00
2022-08-02T09:53:00.000Z,45.90
2022-08-02T09:54:00.000Z,46.89
2022-08-02T09:55:00.000Z,44.60
2022-08-02T09:56:00.000Z,44.19
2022-08-02T09:57:00.000Z,44.56
2022-08-02T09:58:00.000Z,43.68
2022-08-02T09:59:00.000Z,43.97
2022-08-02T10:00:00.000Z,43.20
2022-08-02T10:01:00.000Z,44.29
2022-08-02T10:02:00.000Z,42.81
2022-08-02T10:03:00.000Z,43.01
2022-08-02T10:04:00.000Z,43.38
2022-08-02T10:05:00.000Z,42.57
2022-08-02T10:06:00.000Z,42.38
2022-08-02T10:07:00.000Z,43.36
2022-08-02T10:08:00.000Z,42.79
2022-08-02T10:09:00.000Z,44.09
2022-08-02T10:10:00.000Z,43.32
2022-08-02T10:11:00.000Z,45.19
2022-08-02T10:12:00.000Z,43.32
2022-08-02T10:13:00.000Z,43.23
2022-08-02T10:14:00.000Z,44.72
2022-08-02T10:15:00.000Z,44.62
2022-08-02T10:16:00.000Z,45.51
2022-08-02T10:17:00.000Z,44.94
2022-08-02T10:18:00.000Z,45.24
2022-08-02T10:19:00.000Z,44.94
2022-08-02T10:20:00.000Z,44.57
2022-08-02T10:21:00.000Z,45.06
2022-08-02T10:22:00.000Z,47.43
2022-08-02T10:23:00.000Z,45.93
2022-08-02T10:24:00.000Z,44.72
2022-08-02T10:25:00.000Z,45.88
2022-08-02T10:26:00.000Z,44.38
2022-08-02T10:27:00.000Z,44.19
2022-08-02T10:28:00.000Z,43.40
2022-08-02T10:29:00.000Z,43.99
2022-08-02T10:30:00.000Z,43.57
2022-08-02T10:31:00.000Z,43.70
2022-08-02T10:32:00.000Z,43.89
2022-08-02T10:33:00.000Z,44.29
2022-08-02T10:34:00.000Z,45.74
2022-08-02T10:35:00.000Z,43.48
2022-08-02T10:36:00.000Z,44.56
2022-08-02T10:37:00.000Z,43.77
2022-08-02T10:38:00.000Z,44.24
2022-08-02T10:39:00.000Z,42.96
2022-08-02T10:39:00.000Z,42.96
2022-08-02T10:39:00.000Z,42.96
2022-08-02T10:40:00.000Z,42.85
2022-08-02T10:40:00.000Z,42.85
2022-08-02T10:40:00.000Z,42.85
2022-08-02T10:41:00.000Z,41.77
2022-08-02T10:41:00.000Z,41.77
2022-08-02T10:41:00.000Z,41.77
2022-08-02T10:41:59.000Z,42.06
2022-08-02T10:41:59.000Z,42.06
2022-08-02T10:41:59.000Z,42.06
2022-08-02T10:42:59.000Z,42.94
2022-08-02T10:42:59.000Z,42.94
2022-08-02T10:42:59.000Z,42.94
2022-08-02T10:43:59.000Z,41.86
2022-08-02T10:43:59.000Z,41.86
2022-08-02T10:44:59.000Z,42.75
2022-08-02T10:44:59.000Z,42.75
2022-08-02T10:45:59.000Z,41.98
2022-08-02T10:45:59.000Z,41.98
2022-08-02T10:46:59.000Z,43.38
2022-08-02T10:46:59.000Z,43.38
2022-08-02T10:47:59.000Z,43.48
2022-08-02T10:47:59.000Z,43.48
2022-08-02T10:48:59.000Z,44.36
2022-08-02T10:49:59.000Z,44.17
2022-08-02T10:50:59.000Z,42.99
2022-08-02T10:51:59.000Z,43.85
2022-08-02T10:52:59.000Z,42.47
2022-08-02T10:53:59.000Z,42.35
2022-08-02T10:54:59.000Z,42.24
2022-08-02T10:55:59.000Z,42.45
2022-08-02T10:56:59.000Z,43.95
2022-08-02T10:57:59.000Z,42.94
2022-08-02T10:58:59.000Z,42.06
2022-08-02T10:59:59.000Z,42.04
2022-08-02T11:00:59.000Z,41.24
2022-08-02T11:01:59.000Z,42.11
2022-08-02T11:02:59.000Z,42.68
2022-08-02T11:03:59.000Z,40.53
2022-08-02T11:04:59.000Z,40.45
2022-08-02T11:05:59.000Z,41.43
2022-08-02T11:06:59.000Z,42.11